<?xml version="1.0" encoding="UTF-8" standalone="no" ?>
<gpx xmlns="http://www.topografix.com/GPX/1/1" xmlns:xsi="http://www.w3.org/2001/XMLSchema-instance" xsi:schemaLocation="http://www.topografix.com/GPX/1/1 http://www.topografix.com/GPX/1/1/gpx.xsd" version="1.1" creator="VisuGPX - https://www.visugpx.com">
  <metadata>
    <name>Footing 6 13-02-2016</name>
    <desc><![CDATA[Course à pied]]></desc>
  </metadata>
  <trk>
    <name><![CDATA[Footing 6 13-02-2016_1]]></name>
    <trkseg>
      <trkpt lat="43.42899" lon="6.81009">
        <ele>55</ele>
        <time>2016-02-13T10:01:22.620Z</time>
      </trkpt>
      <trkpt lat="43.429" lon="6.81012">
        <ele>51</ele>
        <time>2016-02-13T10:01:34.620Z</time>
      </trkpt>
      <trkpt lat="43.429" lon="6.81012">
        <ele>51</ele>
        <time>2016-02-13T10:01:34.620Z</time>
      </trkpt>
      <trkpt lat="43.42902" lon="6.81024">
        <ele>54.8</ele>
        <time>2016-02-13T10:01:38.620Z</time>
      </trkpt>
      <trkpt lat="43.42907" lon="6.81037">
        <ele>57.8</ele>
        <time>2016-02-13T10:01:42.620Z</time>
      </trkpt>
      <trkpt lat="43.4291" lon="6.81049">
        <ele>56</ele>
        <time>2016-02-13T10:01:46.620Z</time>
      </trkpt>
      <trkpt lat="43.4291" lon="6.81063">
        <ele>55.8</ele>
        <time>2016-02-13T10:01:51.620Z</time>
      </trkpt>
      <trkpt lat="43.42905" lon="6.81074">
        <ele>57.7</ele>
        <time>2016-02-13T10:01:56.620Z</time>
      </trkpt>
      <trkpt lat="43.42899" lon="6.81083">
        <ele>58.6</ele>
        <time>2016-02-13T10:01:59.620Z</time>
      </trkpt>
      <trkpt lat="43.42895" lon="6.81094">
        <ele>59.8</ele>
        <time>2016-02-13T10:02:03.620Z</time>
      </trkpt>
      <trkpt lat="43.42893" lon="6.81107">
        <ele>60.1</ele>
        <time>2016-02-13T10:02:08.620Z</time>
      </trkpt>
      <trkpt lat="43.42892" lon="6.81122">
        <ele>59.7</ele>
        <time>2016-02-13T10:02:13.620Z</time>
      </trkpt>
      <trkpt lat="43.42891" lon="6.81139">
        <ele>58.9</ele>
        <time>2016-02-13T10:02:18.620Z</time>
      </trkpt>
      <trkpt lat="43.42891" lon="6.8116">
        <ele>58.9</ele>
        <time>2016-02-13T10:02:25.620Z</time>
      </trkpt>
      <trkpt lat="43.42892" lon="6.81176">
        <ele>59</ele>
        <time>2016-02-13T10:02:30.620Z</time>
      </trkpt>
      <trkpt lat="43.42891" lon="6.8119">
        <ele>59.1</ele>
        <time>2016-02-13T10:02:35.620Z</time>
      </trkpt>
      <trkpt lat="43.42888" lon="6.81207">
        <ele>58.9</ele>
        <time>2016-02-13T10:02:40.620Z</time>
      </trkpt>
      <trkpt lat="43.42886" lon="6.81226">
        <ele>58.2</ele>
        <time>2016-02-13T10:02:46.620Z</time>
      </trkpt>
      <trkpt lat="43.42887" lon="6.81247">
        <ele>57.3</ele>
        <time>2016-02-13T10:02:53.620Z</time>
      </trkpt>
      <trkpt lat="43.42888" lon="6.81269">
        <ele>58.7</ele>
        <time>2016-02-13T10:03:00.620Z</time>
      </trkpt>
      <trkpt lat="43.42888" lon="6.81298">
        <ele>60</ele>
        <time>2016-02-13T10:03:11.620Z</time>
      </trkpt>
      <trkpt lat="43.42885" lon="6.81311">
        <ele>60.8</ele>
        <time>2016-02-13T10:03:18.620Z</time>
      </trkpt>
      <trkpt lat="43.42881" lon="6.81309">
        <ele>61.8</ele>
        <time>2016-02-13T10:03:23.620Z</time>
      </trkpt>
      <trkpt lat="43.42874" lon="6.81302">
        <ele>63.3</ele>
        <time>2016-02-13T10:03:30.620Z</time>
      </trkpt>
      <trkpt lat="43.42872" lon="6.81306">
        <ele>63.8</ele>
        <time>2016-02-13T10:03:38.620Z</time>
      </trkpt>
      <trkpt lat="43.42875" lon="6.81317">
        <ele>64</ele>
        <time>2016-02-13T10:03:44.620Z</time>
      </trkpt>
      <trkpt lat="43.42879" lon="6.81332">
        <ele>64.5</ele>
        <time>2016-02-13T10:03:51.620Z</time>
      </trkpt>
      <trkpt lat="43.42883" lon="6.81351">
        <ele>65.5</ele>
        <time>2016-02-13T10:04:02.620Z</time>
      </trkpt>
      <trkpt lat="43.42883" lon="6.81344">
        <ele>67</ele>
        <time>2016-02-13T10:04:11.620Z</time>
      </trkpt>
      <trkpt lat="43.42878" lon="6.81332">
        <ele>68.6</ele>
        <time>2016-02-13T10:04:17.620Z</time>
      </trkpt>
      <trkpt lat="43.42874" lon="6.81329">
        <ele>69.7</ele>
        <time>2016-02-13T10:04:22.620Z</time>
      </trkpt>
      <trkpt lat="43.42872" lon="6.81335">
        <ele>70.7</ele>
        <time>2016-02-13T10:04:26.620Z</time>
      </trkpt>
      <trkpt lat="43.42871" lon="6.81348">
        <ele>70.3</ele>
        <time>2016-02-13T10:04:31.620Z</time>
      </trkpt>
      <trkpt lat="43.42873" lon="6.81364">
        <ele>69.8</ele>
        <time>2016-02-13T10:04:36.620Z</time>
      </trkpt>
      <trkpt lat="43.42875" lon="6.81382">
        <ele>69.6</ele>
        <time>2016-02-13T10:04:42.620Z</time>
      </trkpt>
      <trkpt lat="43.42881" lon="6.81399">
        <ele>70</ele>
        <time>2016-02-13T10:04:49.620Z</time>
      </trkpt>
      <trkpt lat="43.4289" lon="6.81404">
        <ele>70.5</ele>
        <time>2016-02-13T10:04:55.620Z</time>
      </trkpt>
      <trkpt lat="43.429" lon="6.81401">
        <ele>71</ele>
        <time>2016-02-13T10:05:00.620Z</time>
      </trkpt>
      <trkpt lat="43.42907" lon="6.81391">
        <ele>71.7</ele>
        <time>2016-02-13T10:05:04.620Z</time>
      </trkpt>
      <trkpt lat="43.42914" lon="6.81375">
        <ele>72.8</ele>
        <time>2016-02-13T10:05:09.620Z</time>
      </trkpt>
      <trkpt lat="43.42919" lon="6.81357">
        <ele>73.5</ele>
        <time>2016-02-13T10:05:14.620Z</time>
      </trkpt>
      <trkpt lat="43.42924" lon="6.81339">
        <ele>74.3</ele>
        <time>2016-02-13T10:05:19.620Z</time>
      </trkpt>
      <trkpt lat="43.42933" lon="6.81325">
        <ele>75</ele>
        <time>2016-02-13T10:05:25.620Z</time>
      </trkpt>
      <trkpt lat="43.42942" lon="6.81316">
        <ele>76.1</ele>
        <time>2016-02-13T10:05:30.620Z</time>
      </trkpt>
      <trkpt lat="43.42951" lon="6.81309">
        <ele>75.8</ele>
        <time>2016-02-13T10:05:35.620Z</time>
      </trkpt>
      <trkpt lat="43.42955" lon="6.813">
        <ele>76.5</ele>
        <time>2016-02-13T10:05:40.620Z</time>
      </trkpt>
      <trkpt lat="43.42954" lon="6.81291">
        <ele>76.7</ele>
        <time>2016-02-13T10:05:43.620Z</time>
      </trkpt>
      <trkpt lat="43.42948" lon="6.81281">
        <ele>76.4</ele>
        <time>2016-02-13T10:05:48.620Z</time>
      </trkpt>
      <trkpt lat="43.42939" lon="6.81275">
        <ele>76.7</ele>
        <time>2016-02-13T10:05:52.620Z</time>
      </trkpt>
      <trkpt lat="43.4293" lon="6.81266">
        <ele>76.7</ele>
        <time>2016-02-13T10:05:57.620Z</time>
      </trkpt>
      <trkpt lat="43.42925" lon="6.81257">
        <ele>77</ele>
        <time>2016-02-13T10:06:00.620Z</time>
      </trkpt>
      <trkpt lat="43.42922" lon="6.81246">
        <ele>77.3</ele>
        <time>2016-02-13T10:06:04.620Z</time>
      </trkpt>
      <trkpt lat="43.42922" lon="6.81231">
        <ele>77.5</ele>
        <time>2016-02-13T10:06:09.620Z</time>
      </trkpt>
      <trkpt lat="43.42924" lon="6.81217">
        <ele>77.7</ele>
        <time>2016-02-13T10:06:13.620Z</time>
      </trkpt>
      <trkpt lat="43.42925" lon="6.81204">
        <ele>78</ele>
        <time>2016-02-13T10:06:17.620Z</time>
      </trkpt>
      <trkpt lat="43.42927" lon="6.81191">
        <ele>78.3</ele>
        <time>2016-02-13T10:06:22.620Z</time>
      </trkpt>
      <trkpt lat="43.42929" lon="6.81176">
        <ele>78.6</ele>
        <time>2016-02-13T10:06:26.620Z</time>
      </trkpt>
      <trkpt lat="43.42932" lon="6.81163">
        <ele>78.9</ele>
        <time>2016-02-13T10:06:30.620Z</time>
      </trkpt>
      <trkpt lat="43.42938" lon="6.81152">
        <ele>79.2</ele>
        <time>2016-02-13T10:06:34.620Z</time>
      </trkpt>
      <trkpt lat="43.42946" lon="6.81147">
        <ele>79.1</ele>
        <time>2016-02-13T10:06:38.620Z</time>
      </trkpt>
      <trkpt lat="43.42957" lon="6.81147">
        <ele>79.3</ele>
        <time>2016-02-13T10:06:42.620Z</time>
      </trkpt>
      <trkpt lat="43.42967" lon="6.81145">
        <ele>79.7</ele>
        <time>2016-02-13T10:06:47.620Z</time>
      </trkpt>
      <trkpt lat="43.42973" lon="6.81135">
        <ele>80</ele>
        <time>2016-02-13T10:06:52.620Z</time>
      </trkpt>
      <trkpt lat="43.42974" lon="6.81124">
        <ele>80.3</ele>
        <time>2016-02-13T10:06:56.620Z</time>
      </trkpt>
      <trkpt lat="43.42973" lon="6.8111">
        <ele>80</ele>
        <time>2016-02-13T10:07:01.620Z</time>
      </trkpt>
      <trkpt lat="43.42972" lon="6.81095">
        <ele>79.3</ele>
        <time>2016-02-13T10:07:06.620Z</time>
      </trkpt>
      <trkpt lat="43.4297" lon="6.81081">
        <ele>79.3</ele>
        <time>2016-02-13T10:07:10.620Z</time>
      </trkpt>
      <trkpt lat="43.42967" lon="6.81066">
        <ele>78.4</ele>
        <time>2016-02-13T10:07:15.620Z</time>
      </trkpt>
      <trkpt lat="43.42964" lon="6.81049">
        <ele>77.9</ele>
        <time>2016-02-13T10:07:20.620Z</time>
      </trkpt>
      <trkpt lat="43.42962" lon="6.81033">
        <ele>77.6</ele>
        <time>2016-02-13T10:07:23.620Z</time>
      </trkpt>
      <trkpt lat="43.42963" lon="6.81018">
        <ele>77.2</ele>
        <time>2016-02-13T10:07:28.620Z</time>
      </trkpt>
      <trkpt lat="43.42967" lon="6.81003">
        <ele>76.3</ele>
        <time>2016-02-13T10:07:33.620Z</time>
      </trkpt>
      <trkpt lat="43.42971" lon="6.80986">
        <ele>75.2</ele>
        <time>2016-02-13T10:07:38.620Z</time>
      </trkpt>
      <trkpt lat="43.42976" lon="6.8097">
        <ele>74.2</ele>
        <time>2016-02-13T10:07:43.620Z</time>
      </trkpt>
      <trkpt lat="43.42983" lon="6.8096">
        <ele>73.1</ele>
        <time>2016-02-13T10:07:47.620Z</time>
      </trkpt>
      <trkpt lat="43.42993" lon="6.80954">
        <ele>72.4</ele>
        <time>2016-02-13T10:07:52.620Z</time>
      </trkpt>
      <trkpt lat="43.43002" lon="6.80954">
        <ele>71.5</ele>
        <time>2016-02-13T10:07:55.620Z</time>
      </trkpt>
      <trkpt lat="43.43011" lon="6.80956">
        <ele>70.3</ele>
        <time>2016-02-13T10:07:58.620Z</time>
      </trkpt>
      <trkpt lat="43.43022" lon="6.80961">
        <ele>69.4</ele>
        <time>2016-02-13T10:08:03.620Z</time>
      </trkpt>
      <trkpt lat="43.4303" lon="6.80971">
        <ele>68.2</ele>
        <time>2016-02-13T10:08:06.620Z</time>
      </trkpt>
      <trkpt lat="43.43037" lon="6.80983">
        <ele>67.1</ele>
        <time>2016-02-13T10:08:10.620Z</time>
      </trkpt>
      <trkpt lat="43.43044" lon="6.80998">
        <ele>66.2</ele>
        <time>2016-02-13T10:08:15.620Z</time>
      </trkpt>
      <trkpt lat="43.4305" lon="6.81015">
        <ele>65.2</ele>
        <time>2016-02-13T10:08:20.620Z</time>
      </trkpt>
      <trkpt lat="43.43055" lon="6.81028">
        <ele>64.8</ele>
        <time>2016-02-13T10:08:24.620Z</time>
      </trkpt>
      <trkpt lat="43.43061" lon="6.81039">
        <ele>65.3</ele>
        <time>2016-02-13T10:08:28.620Z</time>
      </trkpt>
      <trkpt lat="43.43068" lon="6.81043">
        <ele>66.9</ele>
        <time>2016-02-13T10:08:32.620Z</time>
      </trkpt>
      <trkpt lat="43.43075" lon="6.81035">
        <ele>68.7</ele>
        <time>2016-02-13T10:08:37.620Z</time>
      </trkpt>
      <trkpt lat="43.4308" lon="6.81017">
        <ele>69.5</ele>
        <time>2016-02-13T10:08:42.620Z</time>
      </trkpt>
      <trkpt lat="43.43087" lon="6.80998">
        <ele>69.9</ele>
        <time>2016-02-13T10:08:47.620Z</time>
      </trkpt>
      <trkpt lat="43.43095" lon="6.80989">
        <ele>70.2</ele>
        <time>2016-02-13T10:08:52.620Z</time>
      </trkpt>
      <trkpt lat="43.43104" lon="6.80988">
        <ele>70.4</ele>
        <time>2016-02-13T10:08:56.620Z</time>
      </trkpt>
      <trkpt lat="43.43114" lon="6.80991">
        <ele>70.4</ele>
        <time>2016-02-13T10:09:01.620Z</time>
      </trkpt>
      <trkpt lat="43.43123" lon="6.80994">
        <ele>71.5</ele>
        <time>2016-02-13T10:09:04.620Z</time>
      </trkpt>
      <trkpt lat="43.43129" lon="6.80989">
        <ele>72</ele>
        <time>2016-02-13T10:09:08.620Z</time>
      </trkpt>
      <trkpt lat="43.43127" lon="6.80979">
        <ele>73.1</ele>
        <time>2016-02-13T10:09:13.620Z</time>
      </trkpt>
      <trkpt lat="43.4312" lon="6.80968">
        <ele>74.1</ele>
        <time>2016-02-13T10:09:17.620Z</time>
      </trkpt>
      <trkpt lat="43.43112" lon="6.80956">
        <ele>75.2</ele>
        <time>2016-02-13T10:09:21.620Z</time>
      </trkpt>
      <trkpt lat="43.43106" lon="6.80946">
        <ele>77.3</ele>
        <time>2016-02-13T10:09:24.620Z</time>
      </trkpt>
      <trkpt lat="43.43098" lon="6.80935">
        <ele>76.8</ele>
        <time>2016-02-13T10:09:27.620Z</time>
      </trkpt>
      <trkpt lat="43.43091" lon="6.80922">
        <ele>76.1</ele>
        <time>2016-02-13T10:09:32.620Z</time>
      </trkpt>
      <trkpt lat="43.43089" lon="6.80911">
        <ele>75.2</ele>
        <time>2016-02-13T10:09:35.620Z</time>
      </trkpt>
      <trkpt lat="43.43091" lon="6.809">
        <ele>74.4</ele>
        <time>2016-02-13T10:09:38.620Z</time>
      </trkpt>
      <trkpt lat="43.43099" lon="6.80891">
        <ele>73</ele>
        <time>2016-02-13T10:09:43.620Z</time>
      </trkpt>
      <trkpt lat="43.43108" lon="6.80883">
        <ele>71.9</ele>
        <time>2016-02-13T10:09:46.620Z</time>
      </trkpt>
      <trkpt lat="43.43118" lon="6.80878">
        <ele>70.9</ele>
        <time>2016-02-13T10:09:50.620Z</time>
      </trkpt>
      <trkpt lat="43.4313" lon="6.80876">
        <ele>69.7</ele>
        <time>2016-02-13T10:09:55.620Z</time>
      </trkpt>
      <trkpt lat="43.43142" lon="6.80876">
        <ele>68.6</ele>
        <time>2016-02-13T10:10:00.620Z</time>
      </trkpt>
      <trkpt lat="43.43152" lon="6.80879">
        <ele>68</ele>
        <time>2016-02-13T10:10:04.620Z</time>
      </trkpt>
      <trkpt lat="43.43161" lon="6.80883">
        <ele>67.7</ele>
        <time>2016-02-13T10:10:08.620Z</time>
      </trkpt>
      <trkpt lat="43.4317" lon="6.80887">
        <ele>67.5</ele>
        <time>2016-02-13T10:10:12.620Z</time>
      </trkpt>
      <trkpt lat="43.4318" lon="6.80889">
        <ele>66.8</ele>
        <time>2016-02-13T10:10:17.620Z</time>
      </trkpt>
      <trkpt lat="43.43189" lon="6.80891">
        <ele>66.2</ele>
        <time>2016-02-13T10:10:20.620Z</time>
      </trkpt>
      <trkpt lat="43.43199" lon="6.80894">
        <ele>65.4</ele>
        <time>2016-02-13T10:10:25.620Z</time>
      </trkpt>
      <trkpt lat="43.43208" lon="6.80899">
        <ele>64.6</ele>
        <time>2016-02-13T10:10:29.620Z</time>
      </trkpt>
      <trkpt lat="43.43217" lon="6.80902">
        <ele>64.7</ele>
        <time>2016-02-13T10:10:33.620Z</time>
      </trkpt>
      <trkpt lat="43.43225" lon="6.80902">
        <ele>64</ele>
        <time>2016-02-13T10:10:37.620Z</time>
      </trkpt>
      <trkpt lat="43.43234" lon="6.809">
        <ele>65.1</ele>
        <time>2016-02-13T10:10:40.620Z</time>
      </trkpt>
      <trkpt lat="43.43245" lon="6.80896">
        <ele>65.1</ele>
        <time>2016-02-13T10:10:46.620Z</time>
      </trkpt>
      <trkpt lat="43.43245" lon="6.80882">
        <ele>65.9</ele>
        <time>2016-02-13T10:10:52.620Z</time>
      </trkpt>
      <trkpt lat="43.43237" lon="6.80873">
        <ele>66.6</ele>
        <time>2016-02-13T10:10:57.620Z</time>
      </trkpt>
      <trkpt lat="43.43226" lon="6.80869">
        <ele>67.7</ele>
        <time>2016-02-13T10:11:02.620Z</time>
      </trkpt>
      <trkpt lat="43.43215" lon="6.80868">
        <ele>68.8</ele>
        <time>2016-02-13T10:11:05.620Z</time>
      </trkpt>
      <trkpt lat="43.43203" lon="6.80865">
        <ele>69.7</ele>
        <time>2016-02-13T10:11:09.620Z</time>
      </trkpt>
      <trkpt lat="43.43191" lon="6.80862">
        <ele>70.6</ele>
        <time>2016-02-13T10:11:14.620Z</time>
      </trkpt>
      <trkpt lat="43.43179" lon="6.80858">
        <ele>71.5</ele>
        <time>2016-02-13T10:11:18.620Z</time>
      </trkpt>
      <trkpt lat="43.43168" lon="6.80854">
        <ele>72.5</ele>
        <time>2016-02-13T10:11:21.620Z</time>
      </trkpt>
      <trkpt lat="43.43157" lon="6.8085">
        <ele>72.6</ele>
        <time>2016-02-13T10:11:25.620Z</time>
      </trkpt>
      <trkpt lat="43.43146" lon="6.80846">
        <ele>72.3</ele>
        <time>2016-02-13T10:11:30.620Z</time>
      </trkpt>
      <trkpt lat="43.43137" lon="6.80845">
        <ele>73.2</ele>
        <time>2016-02-13T10:11:34.620Z</time>
      </trkpt>
      <trkpt lat="43.43127" lon="6.80847">
        <ele>73.1</ele>
        <time>2016-02-13T10:11:38.620Z</time>
      </trkpt>
      <trkpt lat="43.43118" lon="6.8085">
        <ele>72.9</ele>
        <time>2016-02-13T10:11:41.620Z</time>
      </trkpt>
      <trkpt lat="43.43111" lon="6.80854">
        <ele>72.4</ele>
        <time>2016-02-13T10:11:44.620Z</time>
      </trkpt>
      <trkpt lat="43.43101" lon="6.80857">
        <ele>72.1</ele>
        <time>2016-02-13T10:11:47.620Z</time>
      </trkpt>
      <trkpt lat="43.43091" lon="6.80861">
        <ele>71.3</ele>
        <time>2016-02-13T10:11:52.620Z</time>
      </trkpt>
      <trkpt lat="43.43082" lon="6.80864">
        <ele>70.7</ele>
        <time>2016-02-13T10:11:56.620Z</time>
      </trkpt>
      <trkpt lat="43.43072" lon="6.80869">
        <ele>69.2</ele>
        <time>2016-02-13T10:12:00.620Z</time>
      </trkpt>
      <trkpt lat="43.43063" lon="6.80872">
        <ele>68.6</ele>
        <time>2016-02-13T10:12:03.620Z</time>
      </trkpt>
      <trkpt lat="43.43052" lon="6.80876">
        <ele>67.6</ele>
        <time>2016-02-13T10:12:07.620Z</time>
      </trkpt>
      <trkpt lat="43.43042" lon="6.80875">
        <ele>66.9</ele>
        <time>2016-02-13T10:12:11.620Z</time>
      </trkpt>
      <trkpt lat="43.43035" lon="6.8087">
        <ele>65.9</ele>
        <time>2016-02-13T10:12:15.620Z</time>
      </trkpt>
      <trkpt lat="43.43026" lon="6.80865">
        <ele>65.2</ele>
        <time>2016-02-13T10:12:19.620Z</time>
      </trkpt>
      <trkpt lat="43.43019" lon="6.80868">
        <ele>64.5</ele>
        <time>2016-02-13T10:12:23.620Z</time>
      </trkpt>
      <trkpt lat="43.43017" lon="6.8088">
        <ele>63.1</ele>
        <time>2016-02-13T10:12:28.620Z</time>
      </trkpt>
      <trkpt lat="43.43021" lon="6.80891">
        <ele>61.9</ele>
        <time>2016-02-13T10:12:32.620Z</time>
      </trkpt>
      <trkpt lat="43.43027" lon="6.80902">
        <ele>60.7</ele>
        <time>2016-02-13T10:12:35.620Z</time>
      </trkpt>
      <trkpt lat="43.43033" lon="6.80916">
        <ele>59.4</ele>
        <time>2016-02-13T10:12:38.620Z</time>
      </trkpt>
      <trkpt lat="43.43034" lon="6.80928">
        <ele>58.6</ele>
        <time>2016-02-13T10:12:42.620Z</time>
      </trkpt>
      <trkpt lat="43.43027" lon="6.80933">
        <ele>57.8</ele>
        <time>2016-02-13T10:12:47.620Z</time>
      </trkpt>
      <trkpt lat="43.43018" lon="6.80932">
        <ele>57.2</ele>
        <time>2016-02-13T10:12:50.620Z</time>
      </trkpt>
      <trkpt lat="43.43006" lon="6.80927">
        <ele>56.5</ele>
        <time>2016-02-13T10:12:55.620Z</time>
      </trkpt>
      <trkpt lat="43.42994" lon="6.80923">
        <ele>55.6</ele>
        <time>2016-02-13T10:12:59.620Z</time>
      </trkpt>
      <trkpt lat="43.42983" lon="6.8092">
        <ele>55.8</ele>
        <time>2016-02-13T10:13:03.620Z</time>
      </trkpt>
      <trkpt lat="43.42972" lon="6.80921">
        <ele>55.4</ele>
        <time>2016-02-13T10:13:08.620Z</time>
      </trkpt>
      <trkpt lat="43.42962" lon="6.80922">
        <ele>54.3</ele>
        <time>2016-02-13T10:13:11.620Z</time>
      </trkpt>
      <trkpt lat="43.42951" lon="6.80922">
        <ele>53.9</ele>
        <time>2016-02-13T10:13:16.620Z</time>
      </trkpt>
      <trkpt lat="43.42942" lon="6.8092">
        <ele>54.1</ele>
        <time>2016-02-13T10:13:19.620Z</time>
      </trkpt>
      <trkpt lat="43.42932" lon="6.80919">
        <ele>54.4</ele>
        <time>2016-02-13T10:13:23.620Z</time>
      </trkpt>
      <trkpt lat="43.42924" lon="6.80921">
        <ele>54.6</ele>
        <time>2016-02-13T10:13:26.620Z</time>
      </trkpt>
      <trkpt lat="43.42914" lon="6.80924">
        <ele>54.7</ele>
        <time>2016-02-13T10:13:29.620Z</time>
      </trkpt>
      <trkpt lat="43.42905" lon="6.8093">
        <ele>55.1</ele>
        <time>2016-02-13T10:13:33.620Z</time>
      </trkpt>
      <trkpt lat="43.42901" lon="6.80938">
        <ele>55.4</ele>
        <time>2016-02-13T10:13:36.620Z</time>
      </trkpt>
      <trkpt lat="43.42898" lon="6.80951">
        <ele>55.7</ele>
        <time>2016-02-13T10:13:39.620Z</time>
      </trkpt>
      <trkpt lat="43.42897" lon="6.80965">
        <ele>56.1</ele>
        <time>2016-02-13T10:13:43.620Z</time>
      </trkpt>
      <trkpt lat="43.42897" lon="6.80977">
        <ele>56.5</ele>
        <time>2016-02-13T10:13:46.620Z</time>
      </trkpt>
      <trkpt lat="43.42896" lon="6.80991">
        <ele>56.9</ele>
        <time>2016-02-13T10:13:49.620Z</time>
      </trkpt>
      <trkpt lat="43.42896" lon="6.81006">
        <ele>57.2</ele>
        <time>2016-02-13T10:13:53.620Z</time>
      </trkpt>
      <trkpt lat="43.42897" lon="6.81019">
        <ele>57.4</ele>
        <time>2016-02-13T10:13:57.620Z</time>
      </trkpt>
      <trkpt lat="43.429" lon="6.81032">
        <ele>57.9</ele>
        <time>2016-02-13T10:14:01.620Z</time>
      </trkpt>
      <trkpt lat="43.42904" lon="6.81045">
        <ele>58.5</ele>
        <time>2016-02-13T10:14:06.620Z</time>
      </trkpt>
      <trkpt lat="43.42906" lon="6.81057">
        <ele>59.2</ele>
        <time>2016-02-13T10:14:10.620Z</time>
      </trkpt>
      <trkpt lat="43.42904" lon="6.81069">
        <ele>59.6</ele>
        <time>2016-02-13T10:14:14.620Z</time>
      </trkpt>
      <trkpt lat="43.429" lon="6.81078">
        <ele>59.9</ele>
        <time>2016-02-13T10:14:18.620Z</time>
      </trkpt>
      <trkpt lat="43.42896" lon="6.81088">
        <ele>60</ele>
        <time>2016-02-13T10:14:21.620Z</time>
      </trkpt>
      <trkpt lat="43.42893" lon="6.81097">
        <ele>60</ele>
        <time>2016-02-13T10:14:24.620Z</time>
      </trkpt>
      <trkpt lat="43.42892" lon="6.81108">
        <ele>59.9</ele>
        <time>2016-02-13T10:14:27.620Z</time>
      </trkpt>
      <trkpt lat="43.42891" lon="6.81122">
        <ele>59.1</ele>
        <time>2016-02-13T10:14:31.620Z</time>
      </trkpt>
      <trkpt lat="43.42891" lon="6.81134">
        <ele>58.5</ele>
        <time>2016-02-13T10:14:35.620Z</time>
      </trkpt>
      <trkpt lat="43.42892" lon="6.81145">
        <ele>58.1</ele>
        <time>2016-02-13T10:14:38.620Z</time>
      </trkpt>
      <trkpt lat="43.42892" lon="6.81155">
        <ele>57.1</ele>
        <time>2016-02-13T10:14:41.620Z</time>
      </trkpt>
      <trkpt lat="43.42893" lon="6.8117">
        <ele>56.1</ele>
        <time>2016-02-13T10:14:46.620Z</time>
      </trkpt>
      <trkpt lat="43.42892" lon="6.81185">
        <ele>55.2</ele>
        <time>2016-02-13T10:14:50.620Z</time>
      </trkpt>
      <trkpt lat="43.42889" lon="6.81199">
        <ele>54.1</ele>
        <time>2016-02-13T10:14:54.620Z</time>
      </trkpt>
      <trkpt lat="43.42886" lon="6.81211">
        <ele>53.2</ele>
        <time>2016-02-13T10:14:59.620Z</time>
      </trkpt>
      <trkpt lat="43.42885" lon="6.81225">
        <ele>51.9</ele>
        <time>2016-02-13T10:15:02.620Z</time>
      </trkpt>
      <trkpt lat="43.42885" lon="6.81239">
        <ele>51.8</ele>
        <time>2016-02-13T10:15:07.620Z</time>
      </trkpt>
      <trkpt lat="43.42887" lon="6.81251">
        <ele>52.1</ele>
        <time>2016-02-13T10:15:10.620Z</time>
      </trkpt>
      <trkpt lat="43.42889" lon="6.81265">
        <ele>52.9</ele>
        <time>2016-02-13T10:15:15.620Z</time>
      </trkpt>
      <trkpt lat="43.42893" lon="6.8128">
        <ele>53.7</ele>
        <time>2016-02-13T10:15:20.620Z</time>
      </trkpt>
      <trkpt lat="43.42896" lon="6.81297">
        <ele>54.4</ele>
        <time>2016-02-13T10:15:25.620Z</time>
      </trkpt>
      <trkpt lat="43.42896" lon="6.81314">
        <ele>55</ele>
        <time>2016-02-13T10:15:32.620Z</time>
      </trkpt>
      <trkpt lat="43.4289" lon="6.81313">
        <ele>56.8</ele>
        <time>2016-02-13T10:15:38.620Z</time>
      </trkpt>
      <trkpt lat="43.42884" lon="6.81304">
        <ele>57.4</ele>
        <time>2016-02-13T10:15:43.620Z</time>
      </trkpt>
      <trkpt lat="43.42876" lon="6.81296">
        <ele>57.8</ele>
        <time>2016-02-13T10:15:48.620Z</time>
      </trkpt>
      <trkpt lat="43.42874" lon="6.813">
        <ele>58.1</ele>
        <time>2016-02-13T10:15:54.620Z</time>
      </trkpt>
      <trkpt lat="43.42876" lon="6.81311">
        <ele>58.1</ele>
        <time>2016-02-13T10:15:59.620Z</time>
      </trkpt>
      <trkpt lat="43.42879" lon="6.81325">
        <ele>58</ele>
        <time>2016-02-13T10:16:04.620Z</time>
      </trkpt>
      <trkpt lat="43.42883" lon="6.81343">
        <ele>58.5</ele>
        <time>2016-02-13T10:16:09.620Z</time>
      </trkpt>
      <trkpt lat="43.42885" lon="6.81361">
        <ele>59.7</ele>
        <time>2016-02-13T10:16:15.620Z</time>
      </trkpt>
      <trkpt lat="43.42882" lon="6.81343">
        <ele>62.7</ele>
        <time>2016-02-13T10:16:28.620Z</time>
      </trkpt>
      <trkpt lat="43.42882" lon="6.81343">
        <ele>62.7</ele>
        <time>2016-02-13T10:16:28.620Z</time>
      </trkpt>
      <trkpt lat="43.42881" lon="6.81337">
        <ele>63.6</ele>
        <time>2016-02-13T10:16:32.620Z</time>
      </trkpt>
      <trkpt lat="43.42878" lon="6.81327">
        <ele>64.5</ele>
        <time>2016-02-13T10:16:37.620Z</time>
      </trkpt>
      <trkpt lat="43.42872" lon="6.81321">
        <ele>65.9</ele>
        <time>2016-02-13T10:16:44.620Z</time>
      </trkpt>
      <trkpt lat="43.42871" lon="6.81329">
        <ele>65.4</ele>
        <time>2016-02-13T10:16:53.620Z</time>
      </trkpt>
      <trkpt lat="43.42872" lon="6.81339">
        <ele>65.3</ele>
        <time>2016-02-13T10:16:58.620Z</time>
      </trkpt>
      <trkpt lat="43.42873" lon="6.8135">
        <ele>65</ele>
        <time>2016-02-13T10:17:03.620Z</time>
      </trkpt>
      <trkpt lat="43.42874" lon="6.81362">
        <ele>64.5</ele>
        <time>2016-02-13T10:17:08.620Z</time>
      </trkpt>
      <trkpt lat="43.42875" lon="6.81374">
        <ele>63.6</ele>
        <time>2016-02-13T10:17:12.620Z</time>
      </trkpt>
      <trkpt lat="43.42877" lon="6.81389">
        <ele>63.4</ele>
        <time>2016-02-13T10:17:17.620Z</time>
      </trkpt>
      <trkpt lat="43.42879" lon="6.81403">
        <ele>63.3</ele>
        <time>2016-02-13T10:17:21.620Z</time>
      </trkpt>
      <trkpt lat="43.42885" lon="6.81412">
        <ele>63.6</ele>
        <time>2016-02-13T10:17:26.620Z</time>
      </trkpt>
      <trkpt lat="43.42892" lon="6.8141">
        <ele>63.8</ele>
        <time>2016-02-13T10:17:31.620Z</time>
      </trkpt>
      <trkpt lat="43.42899" lon="6.81401">
        <ele>64.7</ele>
        <time>2016-02-13T10:17:35.620Z</time>
      </trkpt>
      <trkpt lat="43.42907" lon="6.81388">
        <ele>65.5</ele>
        <time>2016-02-13T10:17:39.620Z</time>
      </trkpt>
      <trkpt lat="43.42915" lon="6.81373">
        <ele>67.2</ele>
        <time>2016-02-13T10:17:43.620Z</time>
      </trkpt>
      <trkpt lat="43.42919" lon="6.81356">
        <ele>68.1</ele>
        <time>2016-02-13T10:17:47.620Z</time>
      </trkpt>
      <trkpt lat="43.42925" lon="6.81338">
        <ele>69.1</ele>
        <time>2016-02-13T10:17:52.620Z</time>
      </trkpt>
      <trkpt lat="43.4293" lon="6.81328">
        <ele>70.1</ele>
        <time>2016-02-13T10:17:56.620Z</time>
      </trkpt>
      <trkpt lat="43.42936" lon="6.81321">
        <ele>71.2</ele>
        <time>2016-02-13T10:17:59.620Z</time>
      </trkpt>
      <trkpt lat="43.42942" lon="6.81314">
        <ele>71.8</ele>
        <time>2016-02-13T10:18:02.620Z</time>
      </trkpt>
      <trkpt lat="43.42951" lon="6.81303">
        <ele>72.2</ele>
        <time>2016-02-13T10:18:07.620Z</time>
      </trkpt>
      <trkpt lat="43.42953" lon="6.81293">
        <ele>72.6</ele>
        <time>2016-02-13T10:18:12.620Z</time>
      </trkpt>
      <trkpt lat="43.42948" lon="6.81285">
        <ele>72.9</ele>
        <time>2016-02-13T10:18:17.620Z</time>
      </trkpt>
      <trkpt lat="43.4294" lon="6.81281">
        <ele>73.6</ele>
        <time>2016-02-13T10:18:20.620Z</time>
      </trkpt>
      <trkpt lat="43.4293" lon="6.81275">
        <ele>73.7</ele>
        <time>2016-02-13T10:18:24.620Z</time>
      </trkpt>
      <trkpt lat="43.42922" lon="6.81267">
        <ele>73.6</ele>
        <time>2016-02-13T10:18:28.620Z</time>
      </trkpt>
      <trkpt lat="43.42919" lon="6.81258">
        <ele>74.4</ele>
        <time>2016-02-13T10:18:31.620Z</time>
      </trkpt>
      <trkpt lat="43.42917" lon="6.81247">
        <ele>74.9</ele>
        <time>2016-02-13T10:18:34.620Z</time>
      </trkpt>
      <trkpt lat="43.42918" lon="6.81232">
        <ele>75.4</ele>
        <time>2016-02-13T10:18:38.620Z</time>
      </trkpt>
      <trkpt lat="43.4292" lon="6.81221">
        <ele>76</ele>
        <time>2016-02-13T10:18:42.620Z</time>
      </trkpt>
      <trkpt lat="43.42923" lon="6.81207">
        <ele>76.4</ele>
        <time>2016-02-13T10:18:46.620Z</time>
      </trkpt>
      <trkpt lat="43.42924" lon="6.81194">
        <ele>76.8</ele>
        <time>2016-02-13T10:18:50.620Z</time>
      </trkpt>
      <trkpt lat="43.42926" lon="6.81179">
        <ele>76.9</ele>
        <time>2016-02-13T10:18:54.620Z</time>
      </trkpt>
      <trkpt lat="43.42929" lon="6.81165">
        <ele>76.9</ele>
        <time>2016-02-13T10:18:57.620Z</time>
      </trkpt>
      <trkpt lat="43.42936" lon="6.81153">
        <ele>76.5</ele>
        <time>2016-02-13T10:19:02.620Z</time>
      </trkpt>
      <trkpt lat="43.42944" lon="6.81148">
        <ele>75.7</ele>
        <time>2016-02-13T10:19:06.620Z</time>
      </trkpt>
      <trkpt lat="43.42953" lon="6.81149">
        <ele>74.8</ele>
        <time>2016-02-13T10:19:09.620Z</time>
      </trkpt>
      <trkpt lat="43.42962" lon="6.81151">
        <ele>74.2</ele>
        <time>2016-02-13T10:19:12.620Z</time>
      </trkpt>
      <trkpt lat="43.42971" lon="6.81147">
        <ele>74.2</ele>
        <time>2016-02-13T10:19:17.620Z</time>
      </trkpt>
      <trkpt lat="43.42975" lon="6.81138">
        <ele>74.3</ele>
        <time>2016-02-13T10:19:21.620Z</time>
      </trkpt>
      <trkpt lat="43.42975" lon="6.81128">
        <ele>74.6</ele>
        <time>2016-02-13T10:19:24.620Z</time>
      </trkpt>
      <trkpt lat="43.42973" lon="6.81116">
        <ele>75.1</ele>
        <time>2016-02-13T10:19:27.620Z</time>
      </trkpt>
      <trkpt lat="43.4297" lon="6.81105">
        <ele>75.1</ele>
        <time>2016-02-13T10:19:30.620Z</time>
      </trkpt>
      <trkpt lat="43.42967" lon="6.81091">
        <ele>75.2</ele>
        <time>2016-02-13T10:19:33.620Z</time>
      </trkpt>
      <trkpt lat="43.42963" lon="6.81075">
        <ele>76</ele>
        <time>2016-02-13T10:19:38.620Z</time>
      </trkpt>
      <trkpt lat="43.4296" lon="6.81061">
        <ele>76.1</ele>
        <time>2016-02-13T10:19:41.620Z</time>
      </trkpt>
      <trkpt lat="43.42958" lon="6.81046">
        <ele>76.1</ele>
        <time>2016-02-13T10:19:46.620Z</time>
      </trkpt>
      <trkpt lat="43.42957" lon="6.81033">
        <ele>75.4</ele>
        <time>2016-02-13T10:19:50.620Z</time>
      </trkpt>
      <trkpt lat="43.42958" lon="6.81021">
        <ele>74.1</ele>
        <time>2016-02-13T10:19:53.620Z</time>
      </trkpt>
      <trkpt lat="43.42962" lon="6.8101">
        <ele>72.3</ele>
        <time>2016-02-13T10:19:57.620Z</time>
      </trkpt>
      <trkpt lat="43.42967" lon="6.81001">
        <ele>70.8</ele>
        <time>2016-02-13T10:20:01.620Z</time>
      </trkpt>
      <trkpt lat="43.42971" lon="6.80993">
        <ele>69.7</ele>
        <time>2016-02-13T10:20:04.620Z</time>
      </trkpt>
      <trkpt lat="43.42976" lon="6.80985">
        <ele>68.9</ele>
        <time>2016-02-13T10:20:07.620Z</time>
      </trkpt>
      <trkpt lat="43.42982" lon="6.80977">
        <ele>68.4</ele>
        <time>2016-02-13T10:20:10.620Z</time>
      </trkpt>
      <trkpt lat="43.42989" lon="6.8097">
        <ele>68</ele>
        <time>2016-02-13T10:20:14.620Z</time>
      </trkpt>
      <trkpt lat="43.42996" lon="6.80965">
        <ele>67.7</ele>
        <time>2016-02-13T10:20:17.620Z</time>
      </trkpt>
      <trkpt lat="43.43004" lon="6.80962">
        <ele>67.4</ele>
        <time>2016-02-13T10:20:20.620Z</time>
      </trkpt>
      <trkpt lat="43.43014" lon="6.80961">
        <ele>67.1</ele>
        <time>2016-02-13T10:20:24.620Z</time>
      </trkpt>
      <trkpt lat="43.43024" lon="6.80964">
        <ele>66.8</ele>
        <time>2016-02-13T10:20:28.620Z</time>
      </trkpt>
      <trkpt lat="43.43033" lon="6.80972">
        <ele>66.3</ele>
        <time>2016-02-13T10:20:33.620Z</time>
      </trkpt>
      <trkpt lat="43.43039" lon="6.80984">
        <ele>66</ele>
        <time>2016-02-13T10:20:37.620Z</time>
      </trkpt>
      <trkpt lat="43.43042" lon="6.80994">
        <ele>65.8</ele>
        <time>2016-02-13T10:20:40.620Z</time>
      </trkpt>
      <trkpt lat="43.43046" lon="6.81005">
        <ele>65.5</ele>
        <time>2016-02-13T10:20:44.620Z</time>
      </trkpt>
      <trkpt lat="43.43051" lon="6.81018">
        <ele>65.8</ele>
        <time>2016-02-13T10:20:49.620Z</time>
      </trkpt>
      <trkpt lat="43.43057" lon="6.81028">
        <ele>65.9</ele>
        <time>2016-02-13T10:20:52.620Z</time>
      </trkpt>
      <trkpt lat="43.43063" lon="6.81034">
        <ele>66.3</ele>
        <time>2016-02-13T10:20:55.620Z</time>
      </trkpt>
      <trkpt lat="43.43071" lon="6.81033">
        <ele>67.5</ele>
        <time>2016-02-13T10:21:00.620Z</time>
      </trkpt>
      <trkpt lat="43.43075" lon="6.81022">
        <ele>68.5</ele>
        <time>2016-02-13T10:21:04.620Z</time>
      </trkpt>
      <trkpt lat="43.43076" lon="6.8101">
        <ele>69.5</ele>
        <time>2016-02-13T10:21:07.620Z</time>
      </trkpt>
      <trkpt lat="43.43079" lon="6.80997">
        <ele>69.9</ele>
        <time>2016-02-13T10:21:10.620Z</time>
      </trkpt>
      <trkpt lat="43.43084" lon="6.80988">
        <ele>70</ele>
        <time>2016-02-13T10:21:13.620Z</time>
      </trkpt>
      <trkpt lat="43.43092" lon="6.80984">
        <ele>69.8</ele>
        <time>2016-02-13T10:21:16.620Z</time>
      </trkpt>
      <trkpt lat="43.43099" lon="6.80985">
        <ele>69.4</ele>
        <time>2016-02-13T10:21:19.620Z</time>
      </trkpt>
      <trkpt lat="43.43109" lon="6.80989">
        <ele>69.1</ele>
        <time>2016-02-13T10:21:23.620Z</time>
      </trkpt>
      <trkpt lat="43.43119" lon="6.80994">
        <ele>69</ele>
        <time>2016-02-13T10:21:27.620Z</time>
      </trkpt>
      <trkpt lat="43.43128" lon="6.80996">
        <ele>70</ele>
        <time>2016-02-13T10:21:31.620Z</time>
      </trkpt>
      <trkpt lat="43.43129" lon="6.80989">
        <ele>70.7</ele>
        <time>2016-02-13T10:21:35.620Z</time>
      </trkpt>
      <trkpt lat="43.43126" lon="6.8098">
        <ele>70.8</ele>
        <time>2016-02-13T10:21:38.620Z</time>
      </trkpt>
      <trkpt lat="43.43121" lon="6.80969">
        <ele>71.2</ele>
        <time>2016-02-13T10:21:42.620Z</time>
      </trkpt>
      <trkpt lat="43.43113" lon="6.80956">
        <ele>71.9</ele>
        <time>2016-02-13T10:21:46.620Z</time>
      </trkpt>
      <trkpt lat="43.43105" lon="6.80943">
        <ele>72.6</ele>
        <time>2016-02-13T10:21:50.620Z</time>
      </trkpt>
      <trkpt lat="43.43098" lon="6.80933">
        <ele>73.1</ele>
        <time>2016-02-13T10:21:53.620Z</time>
      </trkpt>
      <trkpt lat="43.4309" lon="6.80918">
        <ele>74</ele>
        <time>2016-02-13T10:21:58.620Z</time>
      </trkpt>
      <trkpt lat="43.43088" lon="6.80908">
        <ele>74.2</ele>
        <time>2016-02-13T10:22:01.620Z</time>
      </trkpt>
      <trkpt lat="43.43091" lon="6.80899">
        <ele>73.9</ele>
        <time>2016-02-13T10:22:04.620Z</time>
      </trkpt>
      <trkpt lat="43.43097" lon="6.80891">
        <ele>73.5</ele>
        <time>2016-02-13T10:22:08.620Z</time>
      </trkpt>
      <trkpt lat="43.43105" lon="6.80885">
        <ele>73</ele>
        <time>2016-02-13T10:22:11.620Z</time>
      </trkpt>
      <trkpt lat="43.43113" lon="6.80879">
        <ele>72.5</ele>
        <time>2016-02-13T10:22:14.620Z</time>
      </trkpt>
      <trkpt lat="43.43121" lon="6.80875">
        <ele>72</ele>
        <time>2016-02-13T10:22:17.620Z</time>
      </trkpt>
      <trkpt lat="43.43129" lon="6.80872">
        <ele>71.4</ele>
        <time>2016-02-13T10:22:20.620Z</time>
      </trkpt>
      <trkpt lat="43.43138" lon="6.80872">
        <ele>70.9</ele>
        <time>2016-02-13T10:22:23.620Z</time>
      </trkpt>
      <trkpt lat="43.43146" lon="6.80873">
        <ele>70.5</ele>
        <time>2016-02-13T10:22:26.620Z</time>
      </trkpt>
      <trkpt lat="43.43154" lon="6.80876">
        <ele>70.1</ele>
        <time>2016-02-13T10:22:29.620Z</time>
      </trkpt>
      <trkpt lat="43.43161" lon="6.80879">
        <ele>70.1</ele>
        <time>2016-02-13T10:22:32.620Z</time>
      </trkpt>
      <trkpt lat="43.43169" lon="6.80881">
        <ele>70.2</ele>
        <time>2016-02-13T10:22:35.620Z</time>
      </trkpt>
      <trkpt lat="43.43179" lon="6.80884">
        <ele>70.4</ele>
        <time>2016-02-13T10:22:40.620Z</time>
      </trkpt>
      <trkpt lat="43.43186" lon="6.80886">
        <ele>70.5</ele>
        <time>2016-02-13T10:22:43.620Z</time>
      </trkpt>
      <trkpt lat="43.43195" lon="6.80888">
        <ele>70.6</ele>
        <time>2016-02-13T10:22:47.620Z</time>
      </trkpt>
      <trkpt lat="43.43205" lon="6.80891">
        <ele>70.3</ele>
        <time>2016-02-13T10:22:51.620Z</time>
      </trkpt>
      <trkpt lat="43.43213" lon="6.80894">
        <ele>69.8</ele>
        <time>2016-02-13T10:22:54.620Z</time>
      </trkpt>
      <trkpt lat="43.43222" lon="6.80897">
        <ele>69</ele>
        <time>2016-02-13T10:22:59.620Z</time>
      </trkpt>
      <trkpt lat="43.4323" lon="6.80897">
        <ele>67.9</ele>
        <time>2016-02-13T10:23:02.620Z</time>
      </trkpt>
      <trkpt lat="43.43239" lon="6.80894">
        <ele>67</ele>
        <time>2016-02-13T10:23:07.620Z</time>
      </trkpt>
      <trkpt lat="43.43247" lon="6.80888">
        <ele>66.1</ele>
        <time>2016-02-13T10:23:11.620Z</time>
      </trkpt>
      <trkpt lat="43.43249" lon="6.80881">
        <ele>65.6</ele>
        <time>2016-02-13T10:23:15.620Z</time>
      </trkpt>
      <trkpt lat="43.43244" lon="6.80874">
        <ele>65.5</ele>
        <time>2016-02-13T10:23:20.620Z</time>
      </trkpt>
      <trkpt lat="43.43234" lon="6.80869">
        <ele>65.9</ele>
        <time>2016-02-13T10:23:25.620Z</time>
      </trkpt>
      <trkpt lat="43.43223" lon="6.80868">
        <ele>66.6</ele>
        <time>2016-02-13T10:23:29.620Z</time>
      </trkpt>
      <trkpt lat="43.4321" lon="6.80868">
        <ele>66.6</ele>
        <time>2016-02-13T10:23:34.620Z</time>
      </trkpt>
      <trkpt lat="43.43199" lon="6.80865">
        <ele>66.7</ele>
        <time>2016-02-13T10:23:38.620Z</time>
      </trkpt>
      <trkpt lat="43.4319" lon="6.80859">
        <ele>67</ele>
        <time>2016-02-13T10:23:42.620Z</time>
      </trkpt>
      <trkpt lat="43.43181" lon="6.80852">
        <ele>67.2</ele>
        <time>2016-02-13T10:23:47.620Z</time>
      </trkpt>
      <trkpt lat="43.43172" lon="6.80845">
        <ele>67</ele>
        <time>2016-02-13T10:23:51.620Z</time>
      </trkpt>
      <trkpt lat="43.43162" lon="6.80841">
        <ele>66.6</ele>
        <time>2016-02-13T10:23:54.620Z</time>
      </trkpt>
      <trkpt lat="43.43153" lon="6.80839">
        <ele>65.7</ele>
        <time>2016-02-13T10:23:58.620Z</time>
      </trkpt>
      <trkpt lat="43.43143" lon="6.80838">
        <ele>65</ele>
        <time>2016-02-13T10:24:01.620Z</time>
      </trkpt>
      <trkpt lat="43.4313" lon="6.8084">
        <ele>65.3</ele>
        <time>2016-02-13T10:24:06.620Z</time>
      </trkpt>
      <trkpt lat="43.43119" lon="6.80844">
        <ele>64.3</ele>
        <time>2016-02-13T10:24:09.620Z</time>
      </trkpt>
      <trkpt lat="43.43112" lon="6.80847">
        <ele>63.5</ele>
        <time>2016-02-13T10:24:12.620Z</time>
      </trkpt>
      <trkpt lat="43.43104" lon="6.8085">
        <ele>62.9</ele>
        <time>2016-02-13T10:24:15.620Z</time>
      </trkpt>
      <trkpt lat="43.43097" lon="6.80854">
        <ele>62.4</ele>
        <time>2016-02-13T10:24:18.620Z</time>
      </trkpt>
      <trkpt lat="43.43088" lon="6.80858">
        <ele>62</ele>
        <time>2016-02-13T10:24:21.620Z</time>
      </trkpt>
      <trkpt lat="43.4308" lon="6.80861">
        <ele>61.3</ele>
        <time>2016-02-13T10:24:25.620Z</time>
      </trkpt>
      <trkpt lat="43.4307" lon="6.80866">
        <ele>59.9</ele>
        <time>2016-02-13T10:24:29.620Z</time>
      </trkpt>
      <trkpt lat="43.4306" lon="6.80871">
        <ele>58.4</ele>
        <time>2016-02-13T10:24:33.620Z</time>
      </trkpt>
      <trkpt lat="43.4305" lon="6.80872">
        <ele>56.4</ele>
        <time>2016-02-13T10:24:37.620Z</time>
      </trkpt>
      <trkpt lat="43.43042" lon="6.80869">
        <ele>55.4</ele>
        <time>2016-02-13T10:24:40.620Z</time>
      </trkpt>
      <trkpt lat="43.43033" lon="6.80866">
        <ele>54.9</ele>
        <time>2016-02-13T10:24:43.620Z</time>
      </trkpt>
      <trkpt lat="43.43025" lon="6.80863">
        <ele>54.9</ele>
        <time>2016-02-13T10:24:46.620Z</time>
      </trkpt>
      <trkpt lat="43.43019" lon="6.80865">
        <ele>55.1</ele>
        <time>2016-02-13T10:24:49.620Z</time>
      </trkpt>
      <trkpt lat="43.43015" lon="6.80875">
        <ele>54.5</ele>
        <time>2016-02-13T10:24:53.620Z</time>
      </trkpt>
      <trkpt lat="43.43016" lon="6.80886">
        <ele>53.8</ele>
        <time>2016-02-13T10:24:56.620Z</time>
      </trkpt>
      <trkpt lat="43.43022" lon="6.80899">
        <ele>53.2</ele>
        <time>2016-02-13T10:25:01.620Z</time>
      </trkpt>
      <trkpt lat="43.43029" lon="6.80911">
        <ele>52.3</ele>
        <time>2016-02-13T10:25:05.620Z</time>
      </trkpt>
      <trkpt lat="43.43033" lon="6.80925">
        <ele>51.9</ele>
        <time>2016-02-13T10:25:09.620Z</time>
      </trkpt>
      <trkpt lat="43.43031" lon="6.80933">
        <ele>52.1</ele>
        <time>2016-02-13T10:25:12.620Z</time>
      </trkpt>
      <trkpt lat="43.43023" lon="6.80937">
        <ele>52.2</ele>
        <time>2016-02-13T10:25:17.620Z</time>
      </trkpt>
      <trkpt lat="43.43013" lon="6.80933">
        <ele>50.9</ele>
        <time>2016-02-13T10:25:22.620Z</time>
      </trkpt>
      <trkpt lat="43.43004" lon="6.80929">
        <ele>49.4</ele>
        <time>2016-02-13T10:25:25.620Z</time>
      </trkpt>
      <trkpt lat="43.42995" lon="6.80923">
        <ele>47.8</ele>
        <time>2016-02-13T10:25:28.620Z</time>
      </trkpt>
      <trkpt lat="43.42985" lon="6.80917">
        <ele>46.5</ele>
        <time>2016-02-13T10:25:33.620Z</time>
      </trkpt>
      <trkpt lat="43.42976" lon="6.80915">
        <ele>45.3</ele>
        <time>2016-02-13T10:25:36.620Z</time>
      </trkpt>
      <trkpt lat="43.42965" lon="6.80915">
        <ele>44</ele>
        <time>2016-02-13T10:25:41.620Z</time>
      </trkpt>
      <trkpt lat="43.42956" lon="6.80917">
        <ele>42.9</ele>
        <time>2016-02-13T10:25:45.620Z</time>
      </trkpt>
      <trkpt lat="43.42947" lon="6.80917">
        <ele>41</ele>
        <time>2016-02-13T10:25:48.620Z</time>
      </trkpt>
      <trkpt lat="43.42935" lon="6.80917">
        <ele>40.6</ele>
        <time>2016-02-13T10:25:53.620Z</time>
      </trkpt>
      <trkpt lat="43.42927" lon="6.80918">
        <ele>40.9</ele>
        <time>2016-02-13T10:25:56.620Z</time>
      </trkpt>
      <trkpt lat="43.42919" lon="6.8092">
        <ele>41.4</ele>
        <time>2016-02-13T10:25:59.620Z</time>
      </trkpt>
      <trkpt lat="43.4291" lon="6.80925">
        <ele>43.2</ele>
        <time>2016-02-13T10:26:03.620Z</time>
      </trkpt>
      <trkpt lat="43.42904" lon="6.80935">
        <ele>44.1</ele>
        <time>2016-02-13T10:26:06.620Z</time>
      </trkpt>
      <trkpt lat="43.42899" lon="6.8095">
        <ele>45.7</ele>
        <time>2016-02-13T10:26:09.620Z</time>
      </trkpt>
      <trkpt lat="43.42898" lon="6.80963">
        <ele>47</ele>
        <time>2016-02-13T10:26:12.620Z</time>
      </trkpt>
      <trkpt lat="43.42896" lon="6.8098">
        <ele>48.5</ele>
        <time>2016-02-13T10:26:16.620Z</time>
      </trkpt>
      <trkpt lat="43.42897" lon="6.80995">
        <ele>49.9</ele>
        <time>2016-02-13T10:26:20.620Z</time>
      </trkpt>
      <trkpt lat="43.42897" lon="6.81008">
        <ele>51.1</ele>
        <time>2016-02-13T10:26:24.620Z</time>
      </trkpt>
      <trkpt lat="43.42898" lon="6.8102">
        <ele>51.9</ele>
        <time>2016-02-13T10:26:28.620Z</time>
      </trkpt>
      <trkpt lat="43.42901" lon="6.81029">
        <ele>52.5</ele>
        <time>2016-02-13T10:26:31.620Z</time>
      </trkpt>
      <trkpt lat="43.42904" lon="6.8104">
        <ele>53.1</ele>
        <time>2016-02-13T10:26:36.620Z</time>
      </trkpt>
      <trkpt lat="43.42906" lon="6.8105">
        <ele>53.7</ele>
        <time>2016-02-13T10:26:40.620Z</time>
      </trkpt>
      <trkpt lat="43.42906" lon="6.8106">
        <ele>54.5</ele>
        <time>2016-02-13T10:26:43.620Z</time>
      </trkpt>
      <trkpt lat="43.42902" lon="6.8107">
        <ele>55.2</ele>
        <time>2016-02-13T10:26:48.620Z</time>
      </trkpt>
      <trkpt lat="43.42898" lon="6.81078">
        <ele>55.9</ele>
        <time>2016-02-13T10:26:51.620Z</time>
      </trkpt>
      <trkpt lat="43.42895" lon="6.81087">
        <ele>56.4</ele>
        <time>2016-02-13T10:26:54.620Z</time>
      </trkpt>
      <trkpt lat="43.42893" lon="6.81097">
        <ele>56.9</ele>
        <time>2016-02-13T10:26:57.620Z</time>
      </trkpt>
      <trkpt lat="43.42892" lon="6.81108">
        <ele>57</ele>
        <time>2016-02-13T10:27:00.620Z</time>
      </trkpt>
      <trkpt lat="43.42892" lon="6.81119">
        <ele>57</ele>
        <time>2016-02-13T10:27:03.620Z</time>
      </trkpt>
      <trkpt lat="43.42892" lon="6.81131">
        <ele>57.1</ele>
        <time>2016-02-13T10:27:06.620Z</time>
      </trkpt>
      <trkpt lat="43.42893" lon="6.81145">
        <ele>56.9</ele>
        <time>2016-02-13T10:27:11.620Z</time>
      </trkpt>
      <trkpt lat="43.42895" lon="6.81158">
        <ele>56.5</ele>
        <time>2016-02-13T10:27:14.620Z</time>
      </trkpt>
      <trkpt lat="43.42897" lon="6.8117">
        <ele>56.1</ele>
        <time>2016-02-13T10:27:18.620Z</time>
      </trkpt>
      <trkpt lat="43.42896" lon="6.81183">
        <ele>55.7</ele>
        <time>2016-02-13T10:27:22.620Z</time>
      </trkpt>
      <trkpt lat="43.42893" lon="6.81195">
        <ele>55.2</ele>
        <time>2016-02-13T10:27:26.620Z</time>
      </trkpt>
      <trkpt lat="43.42889" lon="6.81208">
        <ele>55.2</ele>
        <time>2016-02-13T10:27:30.620Z</time>
      </trkpt>
      <trkpt lat="43.42888" lon="6.81221">
        <ele>54.8</ele>
        <time>2016-02-13T10:27:34.620Z</time>
      </trkpt>
      <trkpt lat="43.42887" lon="6.81235">
        <ele>54.3</ele>
        <time>2016-02-13T10:27:39.620Z</time>
      </trkpt>
      <trkpt lat="43.42886" lon="6.81248">
        <ele>53.9</ele>
        <time>2016-02-13T10:27:42.620Z</time>
      </trkpt>
      <trkpt lat="43.42887" lon="6.81262">
        <ele>53.8</ele>
        <time>2016-02-13T10:27:46.620Z</time>
      </trkpt>
      <trkpt lat="43.4289" lon="6.81276">
        <ele>53.7</ele>
        <time>2016-02-13T10:27:51.620Z</time>
      </trkpt>
      <trkpt lat="43.42893" lon="6.8129">
        <ele>53.7</ele>
        <time>2016-02-13T10:27:55.620Z</time>
      </trkpt>
      <trkpt lat="43.42894" lon="6.81302">
        <ele>53.4</ele>
        <time>2016-02-13T10:28:00.620Z</time>
      </trkpt>
      <trkpt lat="43.42894" lon="6.81314">
        <ele>54</ele>
        <time>2016-02-13T10:28:06.620Z</time>
      </trkpt>
      <trkpt lat="43.42888" lon="6.81312">
        <ele>54.8</ele>
        <time>2016-02-13T10:28:14.620Z</time>
      </trkpt>
      <trkpt lat="43.4288" lon="6.81303">
        <ele>56.2</ele>
        <time>2016-02-13T10:28:21.620Z</time>
      </trkpt>
      <trkpt lat="43.42872" lon="6.81294">
        <ele>56.6</ele>
        <time>2016-02-13T10:28:28.620Z</time>
      </trkpt>
      <trkpt lat="43.42869" lon="6.81297">
        <ele>57</ele>
        <time>2016-02-13T10:28:35.620Z</time>
      </trkpt>
      <trkpt lat="43.42871" lon="6.81305">
        <ele>57.2</ele>
        <time>2016-02-13T10:28:40.620Z</time>
      </trkpt>
      <trkpt lat="43.42874" lon="6.81317">
        <ele>57.8</ele>
        <time>2016-02-13T10:28:47.620Z</time>
      </trkpt>
      <trkpt lat="43.42879" lon="6.81328">
        <ele>58</ele>
        <time>2016-02-13T10:28:52.620Z</time>
      </trkpt>
      <trkpt lat="43.42884" lon="6.81338">
        <ele>58.3</ele>
        <time>2016-02-13T10:28:57.620Z</time>
      </trkpt>
      <trkpt lat="43.42889" lon="6.81349">
        <ele>58.8</ele>
        <time>2016-02-13T10:29:02.620Z</time>
      </trkpt>
      <trkpt lat="43.42892" lon="6.81362">
        <ele>59.8</ele>
        <time>2016-02-13T10:29:09.620Z</time>
      </trkpt>
      <trkpt lat="43.42889" lon="6.81363">
        <ele>61.3</ele>
        <time>2016-02-13T10:29:15.620Z</time>
      </trkpt>
      <trkpt lat="43.42886" lon="6.81356">
        <ele>62.3</ele>
        <time>2016-02-13T10:29:18.620Z</time>
      </trkpt>
      <trkpt lat="43.42881" lon="6.81343">
        <ele>63</ele>
        <time>2016-02-13T10:29:23.620Z</time>
      </trkpt>
      <trkpt lat="43.42874" lon="6.81332">
        <ele>64.3</ele>
        <time>2016-02-13T10:29:27.620Z</time>
      </trkpt>
      <trkpt lat="43.42869" lon="6.81332">
        <ele>64.6</ele>
        <time>2016-02-13T10:29:32.620Z</time>
      </trkpt>
      <trkpt lat="43.42869" lon="6.81341">
        <ele>64.4</ele>
        <time>2016-02-13T10:29:37.620Z</time>
      </trkpt>
      <trkpt lat="43.4287" lon="6.81352">
        <ele>63.9</ele>
        <time>2016-02-13T10:29:40.620Z</time>
      </trkpt>
      <trkpt lat="43.42872" lon="6.81365">
        <ele>63</ele>
        <time>2016-02-13T10:29:45.620Z</time>
      </trkpt>
      <trkpt lat="43.42876" lon="6.81378">
        <ele>62</ele>
        <time>2016-02-13T10:29:49.620Z</time>
      </trkpt>
      <trkpt lat="43.4288" lon="6.81393">
        <ele>60.8</ele>
        <time>2016-02-13T10:29:53.620Z</time>
      </trkpt>
      <trkpt lat="43.42886" lon="6.81407">
        <ele>60.7</ele>
        <time>2016-02-13T10:29:59.620Z</time>
      </trkpt>
      <trkpt lat="43.42894" lon="6.81412">
        <ele>59.8</ele>
        <time>2016-02-13T10:30:04.620Z</time>
      </trkpt>
      <trkpt lat="43.42901" lon="6.81408">
        <ele>59.6</ele>
        <time>2016-02-13T10:30:08.620Z</time>
      </trkpt>
      <trkpt lat="43.4291" lon="6.814">
        <ele>59.6</ele>
        <time>2016-02-13T10:30:12.620Z</time>
      </trkpt>
      <trkpt lat="43.42918" lon="6.81389">
        <ele>60.5</ele>
        <time>2016-02-13T10:30:17.620Z</time>
      </trkpt>
      <trkpt lat="43.42921" lon="6.81377">
        <ele>61</ele>
        <time>2016-02-13T10:30:20.620Z</time>
      </trkpt>
      <trkpt lat="43.42923" lon="6.81364">
        <ele>61.6</ele>
        <time>2016-02-13T10:30:23.620Z</time>
      </trkpt>
      <trkpt lat="43.42926" lon="6.81353">
        <ele>62.2</ele>
        <time>2016-02-13T10:30:26.620Z</time>
      </trkpt>
      <trkpt lat="43.4293" lon="6.81344">
        <ele>62.9</ele>
        <time>2016-02-13T10:30:29.620Z</time>
      </trkpt>
      <trkpt lat="43.42935" lon="6.81336">
        <ele>63.4</ele>
        <time>2016-02-13T10:30:32.620Z</time>
      </trkpt>
      <trkpt lat="43.42942" lon="6.81329">
        <ele>63.6</ele>
        <time>2016-02-13T10:30:35.620Z</time>
      </trkpt>
      <trkpt lat="43.42951" lon="6.81319">
        <ele>64</ele>
        <time>2016-02-13T10:30:40.620Z</time>
      </trkpt>
      <trkpt lat="43.42956" lon="6.8131">
        <ele>64.8</ele>
        <time>2016-02-13T10:30:44.620Z</time>
      </trkpt>
      <trkpt lat="43.42957" lon="6.81298">
        <ele>65.8</ele>
        <time>2016-02-13T10:30:47.620Z</time>
      </trkpt>
      <trkpt lat="43.42953" lon="6.81288">
        <ele>66.7</ele>
        <time>2016-02-13T10:30:51.620Z</time>
      </trkpt>
      <trkpt lat="43.42947" lon="6.81282">
        <ele>67.3</ele>
        <time>2016-02-13T10:30:54.620Z</time>
      </trkpt>
      <trkpt lat="43.42939" lon="6.81278">
        <ele>67.9</ele>
        <time>2016-02-13T10:30:57.620Z</time>
      </trkpt>
      <trkpt lat="43.4293" lon="6.81273">
        <ele>68.7</ele>
        <time>2016-02-13T10:31:00.620Z</time>
      </trkpt>
      <trkpt lat="43.42922" lon="6.81264">
        <ele>69.9</ele>
        <time>2016-02-13T10:31:04.620Z</time>
      </trkpt>
      <trkpt lat="43.42918" lon="6.81253">
        <ele>70.7</ele>
        <time>2016-02-13T10:31:08.620Z</time>
      </trkpt>
      <trkpt lat="43.42917" lon="6.81242">
        <ele>71.2</ele>
        <time>2016-02-13T10:31:11.620Z</time>
      </trkpt>
      <trkpt lat="43.42918" lon="6.81229">
        <ele>71.5</ele>
        <time>2016-02-13T10:31:15.620Z</time>
      </trkpt>
      <trkpt lat="43.4292" lon="6.81216">
        <ele>72</ele>
        <time>2016-02-13T10:31:19.620Z</time>
      </trkpt>
      <trkpt lat="43.42923" lon="6.81204">
        <ele>72.5</ele>
        <time>2016-02-13T10:31:22.620Z</time>
      </trkpt>
      <trkpt lat="43.42927" lon="6.81191">
        <ele>72.9</ele>
        <time>2016-02-13T10:31:27.620Z</time>
      </trkpt>
      <trkpt lat="43.4293" lon="6.81182">
        <ele>72.9</ele>
        <time>2016-02-13T10:31:30.620Z</time>
      </trkpt>
      <trkpt lat="43.42934" lon="6.81173">
        <ele>72.7</ele>
        <time>2016-02-13T10:31:33.620Z</time>
      </trkpt>
      <trkpt lat="43.42938" lon="6.81165">
        <ele>72.3</ele>
        <time>2016-02-13T10:31:36.620Z</time>
      </trkpt>
      <trkpt lat="43.42943" lon="6.81159">
        <ele>71.9</ele>
        <time>2016-02-13T10:31:39.620Z</time>
      </trkpt>
      <trkpt lat="43.42949" lon="6.81155">
        <ele>71.8</ele>
        <time>2016-02-13T10:31:42.620Z</time>
      </trkpt>
      <trkpt lat="43.42956" lon="6.81155">
        <ele>71.9</ele>
        <time>2016-02-13T10:31:45.620Z</time>
      </trkpt>
      <trkpt lat="43.42964" lon="6.81155">
        <ele>71.9</ele>
        <time>2016-02-13T10:31:48.620Z</time>
      </trkpt>
      <trkpt lat="43.42972" lon="6.81154">
        <ele>71.7</ele>
        <time>2016-02-13T10:31:51.620Z</time>
      </trkpt>
      <trkpt lat="43.42978" lon="6.81147">
        <ele>71.6</ele>
        <time>2016-02-13T10:31:55.620Z</time>
      </trkpt>
      <trkpt lat="43.42979" lon="6.81135">
        <ele>71.3</ele>
        <time>2016-02-13T10:32:00.620Z</time>
      </trkpt>
      <trkpt lat="43.42977" lon="6.81124">
        <ele>71.1</ele>
        <time>2016-02-13T10:32:03.620Z</time>
      </trkpt>
      <trkpt lat="43.42974" lon="6.81113">
        <ele>70.8</ele>
        <time>2016-02-13T10:32:06.620Z</time>
      </trkpt>
      <trkpt lat="43.4297" lon="6.81102">
        <ele>70.5</ele>
        <time>2016-02-13T10:32:09.620Z</time>
      </trkpt>
      <trkpt lat="43.42968" lon="6.8109">
        <ele>70.3</ele>
        <time>2016-02-13T10:32:12.620Z</time>
      </trkpt>
      <trkpt lat="43.42964" lon="6.81076">
        <ele>70.4</ele>
        <time>2016-02-13T10:32:17.620Z</time>
      </trkpt>
      <trkpt lat="43.42962" lon="6.81063">
        <ele>70.8</ele>
        <time>2016-02-13T10:32:21.620Z</time>
      </trkpt>
      <trkpt lat="43.42961" lon="6.8105">
        <ele>71</ele>
        <time>2016-02-13T10:32:25.620Z</time>
      </trkpt>
      <trkpt lat="43.42961" lon="6.8104">
        <ele>70.8</ele>
        <time>2016-02-13T10:32:28.620Z</time>
      </trkpt>
      <trkpt lat="43.42961" lon="6.81029">
        <ele>70.2</ele>
        <time>2016-02-13T10:32:32.620Z</time>
      </trkpt>
      <trkpt lat="43.42964" lon="6.81017">
        <ele>68.8</ele>
        <time>2016-02-13T10:32:36.620Z</time>
      </trkpt>
      <trkpt lat="43.4297" lon="6.81001">
        <ele>67.4</ele>
        <time>2016-02-13T10:32:41.620Z</time>
      </trkpt>
      <trkpt lat="43.42975" lon="6.80989">
        <ele>66.6</ele>
        <time>2016-02-13T10:32:46.620Z</time>
      </trkpt>
      <trkpt lat="43.42981" lon="6.80977">
        <ele>65.1</ele>
        <time>2016-02-13T10:32:50.620Z</time>
      </trkpt>
      <trkpt lat="43.42988" lon="6.80969">
        <ele>63.2</ele>
        <time>2016-02-13T10:32:54.620Z</time>
      </trkpt>
      <trkpt lat="43.42996" lon="6.80965">
        <ele>61.7</ele>
        <time>2016-02-13T10:32:57.620Z</time>
      </trkpt>
      <trkpt lat="43.43001" lon="6.80965">
        <ele>60.5</ele>
        <time>2016-02-13T10:32:59.620Z</time>
      </trkpt>
      <trkpt lat="43.4301" lon="6.80965">
        <ele>59.6</ele>
        <time>2016-02-13T10:33:03.620Z</time>
      </trkpt>
      <trkpt lat="43.43018" lon="6.80969">
        <ele>58.9</ele>
        <time>2016-02-13T10:33:06.620Z</time>
      </trkpt>
      <trkpt lat="43.43025" lon="6.80973">
        <ele>58.3</ele>
        <time>2016-02-13T10:33:09.620Z</time>
      </trkpt>
      <trkpt lat="43.43032" lon="6.8098">
        <ele>57.2</ele>
        <time>2016-02-13T10:33:12.620Z</time>
      </trkpt>
      <trkpt lat="43.43039" lon="6.80991">
        <ele>57</ele>
        <time>2016-02-13T10:33:17.620Z</time>
      </trkpt>
      <trkpt lat="43.43045" lon="6.81005">
        <ele>56.9</ele>
        <time>2016-02-13T10:33:22.620Z</time>
      </trkpt>
      <trkpt lat="43.43048" lon="6.81019">
        <ele>56.7</ele>
        <time>2016-02-13T10:33:27.620Z</time>
      </trkpt>
      <trkpt lat="43.43052" lon="6.81031">
        <ele>56.2</ele>
        <time>2016-02-13T10:33:32.620Z</time>
      </trkpt>
      <trkpt lat="43.43058" lon="6.81041">
        <ele>56.3</ele>
        <time>2016-02-13T10:33:38.620Z</time>
      </trkpt>
      <trkpt lat="43.43064" lon="6.81035">
        <ele>57.3</ele>
        <time>2016-02-13T10:33:43.620Z</time>
      </trkpt>
      <trkpt lat="43.43067" lon="6.81022">
        <ele>57.7</ele>
        <time>2016-02-13T10:33:46.620Z</time>
      </trkpt>
      <trkpt lat="43.43071" lon="6.81007">
        <ele>57.8</ele>
        <time>2016-02-13T10:33:50.620Z</time>
      </trkpt>
      <trkpt lat="43.43077" lon="6.80996">
        <ele>57.8</ele>
        <time>2016-02-13T10:33:54.620Z</time>
      </trkpt>
      <trkpt lat="43.43085" lon="6.80992">
        <ele>58</ele>
        <time>2016-02-13T10:33:58.620Z</time>
      </trkpt>
      <trkpt lat="43.43095" lon="6.80993">
        <ele>58.4</ele>
        <time>2016-02-13T10:34:02.620Z</time>
      </trkpt>
      <trkpt lat="43.43104" lon="6.80997">
        <ele>59.2</ele>
        <time>2016-02-13T10:34:05.620Z</time>
      </trkpt>
      <trkpt lat="43.43115" lon="6.81001">
        <ele>60.4</ele>
        <time>2016-02-13T10:34:09.620Z</time>
      </trkpt>
      <trkpt lat="43.43125" lon="6.81002">
        <ele>60.9</ele>
        <time>2016-02-13T10:34:12.620Z</time>
      </trkpt>
      <trkpt lat="43.43128" lon="6.80996">
        <ele>61.1</ele>
        <time>2016-02-13T10:34:17.620Z</time>
      </trkpt>
      <trkpt lat="43.43125" lon="6.80987">
        <ele>60.9</ele>
        <time>2016-02-13T10:34:21.620Z</time>
      </trkpt>
      <trkpt lat="43.43119" lon="6.80978">
        <ele>60.7</ele>
        <time>2016-02-13T10:34:24.620Z</time>
      </trkpt>
      <trkpt lat="43.43113" lon="6.80968">
        <ele>60.4</ele>
        <time>2016-02-13T10:34:27.620Z</time>
      </trkpt>
      <trkpt lat="43.43106" lon="6.80955">
        <ele>60</ele>
        <time>2016-02-13T10:34:30.620Z</time>
      </trkpt>
      <trkpt lat="43.43099" lon="6.80942">
        <ele>59.6</ele>
        <time>2016-02-13T10:34:34.620Z</time>
      </trkpt>
      <trkpt lat="43.43092" lon="6.8093">
        <ele>59.8</ele>
        <time>2016-02-13T10:34:38.620Z</time>
      </trkpt>
      <trkpt lat="43.43089" lon="6.8092">
        <ele>60.2</ele>
        <time>2016-02-13T10:34:41.620Z</time>
      </trkpt>
      <trkpt lat="43.43088" lon="6.80909">
        <ele>59.8</ele>
        <time>2016-02-13T10:34:44.620Z</time>
      </trkpt>
      <trkpt lat="43.43094" lon="6.80897">
        <ele>58.5</ele>
        <time>2016-02-13T10:34:49.620Z</time>
      </trkpt>
      <trkpt lat="43.43102" lon="6.80888">
        <ele>56.8</ele>
        <time>2016-02-13T10:34:54.620Z</time>
      </trkpt>
      <trkpt lat="43.4311" lon="6.80884">
        <ele>55.6</ele>
        <time>2016-02-13T10:34:57.620Z</time>
      </trkpt>
      <trkpt lat="43.43118" lon="6.80882">
        <ele>54.5</ele>
        <time>2016-02-13T10:35:00.620Z</time>
      </trkpt>
      <trkpt lat="43.43127" lon="6.80881">
        <ele>53.7</ele>
        <time>2016-02-13T10:35:04.620Z</time>
      </trkpt>
      <trkpt lat="43.43136" lon="6.80881">
        <ele>53.1</ele>
        <time>2016-02-13T10:35:07.620Z</time>
      </trkpt>
      <trkpt lat="43.43144" lon="6.80883">
        <ele>52.9</ele>
        <time>2016-02-13T10:35:10.620Z</time>
      </trkpt>
      <trkpt lat="43.43152" lon="6.80885">
        <ele>52.9</ele>
        <time>2016-02-13T10:35:14.620Z</time>
      </trkpt>
      <trkpt lat="43.4316" lon="6.8089">
        <ele>52.7</ele>
        <time>2016-02-13T10:35:18.620Z</time>
      </trkpt>
      <trkpt lat="43.43168" lon="6.80893">
        <ele>52.8</ele>
        <time>2016-02-13T10:35:21.620Z</time>
      </trkpt>
      <trkpt lat="43.43176" lon="6.80895">
        <ele>53.3</ele>
        <time>2016-02-13T10:35:24.620Z</time>
      </trkpt>
      <trkpt lat="43.43185" lon="6.80896">
        <ele>53.9</ele>
        <time>2016-02-13T10:35:29.620Z</time>
      </trkpt>
      <trkpt lat="43.43194" lon="6.80897">
        <ele>54.4</ele>
        <time>2016-02-13T10:35:32.620Z</time>
      </trkpt>
      <trkpt lat="43.43203" lon="6.80899">
        <ele>54.8</ele>
        <time>2016-02-13T10:35:36.620Z</time>
      </trkpt>
      <trkpt lat="43.43212" lon="6.80902">
        <ele>54.3</ele>
        <time>2016-02-13T10:35:40.620Z</time>
      </trkpt>
      <trkpt lat="43.43222" lon="6.80904">
        <ele>54.2</ele>
        <time>2016-02-13T10:35:44.620Z</time>
      </trkpt>
      <trkpt lat="43.43232" lon="6.80902">
        <ele>54.1</ele>
        <time>2016-02-13T10:35:49.620Z</time>
      </trkpt>
      <trkpt lat="43.43242" lon="6.80897">
        <ele>53.7</ele>
        <time>2016-02-13T10:35:52.620Z</time>
      </trkpt>
      <trkpt lat="43.43251" lon="6.80888">
        <ele>53.5</ele>
        <time>2016-02-13T10:35:58.620Z</time>
      </trkpt>
      <trkpt lat="43.4325" lon="6.80878">
        <ele>53.1</ele>
        <time>2016-02-13T10:36:03.620Z</time>
      </trkpt>
      <trkpt lat="43.43241" lon="6.80873">
        <ele>52.6</ele>
        <time>2016-02-13T10:36:08.620Z</time>
      </trkpt>
      <trkpt lat="43.4323" lon="6.8087">
        <ele>51.8</ele>
        <time>2016-02-13T10:36:12.620Z</time>
      </trkpt>
      <trkpt lat="43.43217" lon="6.80869">
        <ele>51</ele>
        <time>2016-02-13T10:36:17.620Z</time>
      </trkpt>
      <trkpt lat="43.43205" lon="6.80868">
        <ele>50.2</ele>
        <time>2016-02-13T10:36:21.620Z</time>
      </trkpt>
      <trkpt lat="43.43195" lon="6.80864">
        <ele>49.6</ele>
        <time>2016-02-13T10:36:24.620Z</time>
      </trkpt>
      <trkpt lat="43.43185" lon="6.8086">
        <ele>48.9</ele>
        <time>2016-02-13T10:36:28.620Z</time>
      </trkpt>
      <trkpt lat="43.43177" lon="6.80857">
        <ele>48.3</ele>
        <time>2016-02-13T10:36:31.620Z</time>
      </trkpt>
      <trkpt lat="43.4317" lon="6.80853">
        <ele>47.9</ele>
        <time>2016-02-13T10:36:34.620Z</time>
      </trkpt>
      <trkpt lat="43.43163" lon="6.80848">
        <ele>47.7</ele>
        <time>2016-02-13T10:36:37.620Z</time>
      </trkpt>
      <trkpt lat="43.43156" lon="6.80844">
        <ele>47.3</ele>
        <time>2016-02-13T10:36:40.620Z</time>
      </trkpt>
      <trkpt lat="43.43149" lon="6.8084">
        <ele>47.1</ele>
        <time>2016-02-13T10:36:43.620Z</time>
      </trkpt>
      <trkpt lat="43.43139" lon="6.80839">
        <ele>46.9</ele>
        <time>2016-02-13T10:36:48.620Z</time>
      </trkpt>
      <trkpt lat="43.4313" lon="6.80841">
        <ele>46.6</ele>
        <time>2016-02-13T10:36:51.620Z</time>
      </trkpt>
      <trkpt lat="43.43122" lon="6.80842">
        <ele>46.4</ele>
        <time>2016-02-13T10:36:54.620Z</time>
      </trkpt>
      <trkpt lat="43.43115" lon="6.80845">
        <ele>46.5</ele>
        <time>2016-02-13T10:36:57.620Z</time>
      </trkpt>
      <trkpt lat="43.43107" lon="6.80848">
        <ele>46.7</ele>
        <time>2016-02-13T10:37:00.620Z</time>
      </trkpt>
      <trkpt lat="43.431" lon="6.80851">
        <ele>46.9</ele>
        <time>2016-02-13T10:37:03.620Z</time>
      </trkpt>
      <trkpt lat="43.43092" lon="6.80854">
        <ele>47</ele>
        <time>2016-02-13T10:37:06.620Z</time>
      </trkpt>
      <trkpt lat="43.43082" lon="6.80858">
        <ele>47.2</ele>
        <time>2016-02-13T10:37:10.620Z</time>
      </trkpt>
      <trkpt lat="43.43075" lon="6.80861">
        <ele>47.1</ele>
        <time>2016-02-13T10:37:13.620Z</time>
      </trkpt>
      <trkpt lat="43.43064" lon="6.80865">
        <ele>47.2</ele>
        <time>2016-02-13T10:37:17.620Z</time>
      </trkpt>
      <trkpt lat="43.43053" lon="6.80867">
        <ele>47</ele>
        <time>2016-02-13T10:37:21.620Z</time>
      </trkpt>
      <trkpt lat="43.43042" lon="6.80864">
        <ele>47</ele>
        <time>2016-02-13T10:37:25.620Z</time>
      </trkpt>
      <trkpt lat="43.43031" lon="6.80859">
        <ele>47</ele>
        <time>2016-02-13T10:37:29.620Z</time>
      </trkpt>
      <trkpt lat="43.43021" lon="6.80858">
        <ele>47.4</ele>
        <time>2016-02-13T10:37:32.620Z</time>
      </trkpt>
      <trkpt lat="43.43016" lon="6.80865">
        <ele>47.4</ele>
        <time>2016-02-13T10:37:35.620Z</time>
      </trkpt>
      <trkpt lat="43.43014" lon="6.80877">
        <ele>47.9</ele>
        <time>2016-02-13T10:37:39.620Z</time>
      </trkpt>
      <trkpt lat="43.43018" lon="6.80888">
        <ele>48.5</ele>
        <time>2016-02-13T10:37:42.620Z</time>
      </trkpt>
      <trkpt lat="43.43025" lon="6.809">
        <ele>48.3</ele>
        <time>2016-02-13T10:37:45.620Z</time>
      </trkpt>
      <trkpt lat="43.43031" lon="6.80913">
        <ele>48.2</ele>
        <time>2016-02-13T10:37:49.620Z</time>
      </trkpt>
      <trkpt lat="43.43034" lon="6.80927">
        <ele>47.9</ele>
        <time>2016-02-13T10:37:53.620Z</time>
      </trkpt>
      <trkpt lat="43.4303" lon="6.80935">
        <ele>47.7</ele>
        <time>2016-02-13T10:37:56.620Z</time>
      </trkpt>
      <trkpt lat="43.43024" lon="6.80936">
        <ele>46.6</ele>
        <time>2016-02-13T10:37:59.620Z</time>
      </trkpt>
      <trkpt lat="43.43017" lon="6.80934">
        <ele>45.6</ele>
        <time>2016-02-13T10:38:02.620Z</time>
      </trkpt>
      <trkpt lat="43.43008" lon="6.8093">
        <ele>44.6</ele>
        <time>2016-02-13T10:38:05.620Z</time>
      </trkpt>
      <trkpt lat="43.42999" lon="6.80926">
        <ele>43.5</ele>
        <time>2016-02-13T10:38:08.620Z</time>
      </trkpt>
      <trkpt lat="43.42989" lon="6.80921">
        <ele>42.3</ele>
        <time>2016-02-13T10:38:11.620Z</time>
      </trkpt>
      <trkpt lat="43.4298" lon="6.80919">
        <ele>41.3</ele>
        <time>2016-02-13T10:38:14.620Z</time>
      </trkpt>
      <trkpt lat="43.42971" lon="6.80918">
        <ele>40.4</ele>
        <time>2016-02-13T10:38:17.620Z</time>
      </trkpt>
      <trkpt lat="43.42962" lon="6.80918">
        <ele>39.7</ele>
        <time>2016-02-13T10:38:20.620Z</time>
      </trkpt>
      <trkpt lat="43.42952" lon="6.8092">
        <ele>39.1</ele>
        <time>2016-02-13T10:38:23.620Z</time>
      </trkpt>
      <trkpt lat="43.42944" lon="6.8092">
        <ele>37</ele>
        <time>2016-02-13T10:38:26.620Z</time>
      </trkpt>
      <trkpt lat="43.42933" lon="6.8092">
        <ele>35.8</ele>
        <time>2016-02-13T10:38:30.620Z</time>
      </trkpt>
      <trkpt lat="43.42923" lon="6.80921">
        <ele>37</ele>
        <time>2016-02-13T10:38:33.620Z</time>
      </trkpt>
      <trkpt lat="43.42914" lon="6.80925">
        <ele>37.7</ele>
        <time>2016-02-13T10:38:36.620Z</time>
      </trkpt>
      <trkpt lat="43.42907" lon="6.80933">
        <ele>41.7</ele>
        <time>2016-02-13T10:38:39.620Z</time>
      </trkpt>
      <trkpt lat="43.42902" lon="6.80944">
        <ele>43.2</ele>
        <time>2016-02-13T10:38:42.620Z</time>
      </trkpt>
    </trkseg>
  </trk>
</gpx>